createdAt,value
2019-06-10T00:00:21.840Z,17.20
2019-06-10T00:00:59.984Z,36.17
2019-06-10T00:01:36.588Z,23.43
2019-06-10T00:02:13.059Z,18.90
2019-06-10T00:02:50.809Z,27.77
2019-06-10T00:03:27.387Z,22.27
2019-06-10T00:04:07.987Z,25.23
2019-06-10T00:04:42.468Z,21.57
2019-06-10T00:05:21.469Z,29.70
2019-06-10T00:05:57.663Z,20.73
2019-06-10T00:06:34.399Z,21.50
2019-06-10T00:07:11.803Z,19.63
2019-06-10T00:08:08.274Z,25.50
2019-06-10T00:08:47.185Z,24.70
2019-06-10T00:09:23.029Z,27.07
2019-06-10T00:10:02.260Z,22.43
2019-06-10T00:10:37.288Z,25.77
2019-06-10T00:11:13.771Z,20.87
2019-06-10T00:11:51.512Z,24.77
2019-06-10T00:12:27.487Z,32.93
2019-06-10T00:13:04.070Z,26.73
2019-06-10T00:13:41.563Z,34.20
2019-06-10T00:14:17.883Z,23.70
2019-06-10T00:14:53.810Z,25.70
2019-06-10T00:15:31.394Z,25.43
2019-06-10T00:16:07.989Z,23.33
2019-06-10T00:16:44.924Z,19.83
2019-06-10T00:17:21.350Z,20.47
2019-06-10T00:18:18.969Z,27.40
2019-06-10T00:18:41.778Z,23.13
2019-06-10T00:19:12.945Z,22.23
2019-06-10T00:19:51.035Z,24.53
2019-06-10T00:20:26.895Z,33.93
2019-06-10T00:21:04.961Z,21.57
2019-06-10T00:21:41.389Z,22.63
2019-06-10T00:22:17.391Z,23.00
2019-06-10T00:22:53.239Z,23.33
2019-06-10T00:23:31.627Z,24.17
2019-06-10T00:24:08.504Z,23.30
2019-06-10T00:24:45.065Z,25.83
2019-06-10T00:25:21.751Z,22.20
2019-06-10T00:25:57.950Z,24.93
2019-06-10T00:26:33.838Z,22.60
2019-06-10T00:27:11.975Z,19.53
2019-06-10T00:27:48.145Z,23.67
2019-06-10T00:28:23.987Z,24.87
2019-06-10T00:29:00.710Z,20.73
2019-06-10T00:29:40.739Z,20.77
2019-06-10T00:30:16.281Z,22.10
2019-06-10T00:30:52.159Z,19.73
2019-06-10T00:31:28.010Z,19.37
2019-06-10T00:32:07.005Z,23.13
2019-06-10T00:32:43.067Z,22.13
2019-06-10T00:33:21.444Z,23.40
2019-06-10T00:33:56.660Z,29.17
2019-06-10T00:34:34.993Z,24.53
2019-06-10T00:35:12.374Z,23.93
2019-06-10T00:35:48.032Z,26.00
2019-06-10T00:36:23.920Z,26.53
2019-06-10T00:37:02.670Z,26.07
2019-06-10T00:37:37.474Z,21.77
2019-06-10T00:38:14.540Z,24.70
2019-06-10T00:38:51.773Z,20.57
2019-06-10T00:39:27.944Z,26.60
2019-06-10T00:40:06.891Z,23.80
2019-06-10T00:40:42.116Z,21.27
2019-06-10T00:41:18.035Z,21.40
2019-06-10T00:41:54.304Z,27.43
2019-06-10T00:42:31.454Z,20.10
2019-06-10T00:43:09.128Z,24.53
2019-06-10T00:43:45.808Z,22.83
2019-06-10T00:44:23.466Z,27.70
2019-06-10T00:45:02.660Z,30.83
2019-06-10T00:45:37.695Z,25.73
2019-06-10T00:46:15.108Z,31.23
2019-06-10T00:46:52.018Z,23.33
2019-06-10T00:47:30.792Z,27.23
2019-06-10T00:48:15.789Z,25.40
2019-06-10T00:48:45.715Z,23.27
2019-06-10T00:49:22.090Z,26.60
2019-06-10T00:49:58.539Z,25.33
2019-06-10T00:50:35.080Z,23.73
2019-06-10T00:51:13.090Z,30.37
2019-06-10T00:51:50.994Z,24.13
2019-06-10T00:52:27.553Z,26.83
2019-06-10T00:53:05.855Z,23.20
2019-06-10T00:53:42.784Z,25.00
2019-06-10T00:54:21.749Z,25.40
2019-06-10T00:54:57.560Z,23.30
2019-06-10T00:55:34.114Z,31.03
2019-06-10T00:56:13.838Z,24.87
2019-06-10T00:56:52.110Z,40.93
2019-06-10T00:57:28.698Z,23.57
2019-06-10T00:58:05.795Z,23.53
2019-06-10T00:58:42.270Z,25.10
2019-06-10T00:59:18.887Z,28.90
2019-06-10T00:59:55.537Z,23.77
2019-06-10T01:00:32.181Z,27.70
2019-06-10T01:01:11.458Z,26.53
2019-06-10T01:01:47.143Z,27.17
2019-06-10T01:02:24.169Z,33.63
2019-06-10T01:03:02.338Z,23.90
2019-06-10T01:03:41.335Z,23.97
2019-06-10T01:04:17.084Z,30.03
2019-06-10T01:04:53.762Z,22.90
2019-06-10T01:05:31.273Z,24.87
2019-06-10T01:06:08.546Z,31.77
2019-06-10T01:06:45.279Z,27.93
2019-06-10T01:07:21.989Z,26.13
2019-06-10T01:08:01.211Z,22.43
2019-06-10T01:08:37.277Z,33.33
2019-06-10T01:09:14.867Z,24.07
2019-06-10T01:09:51.791Z,27.63
2019-06-10T01:10:28.380Z,30.03
2019-06-10T01:11:10.471Z,26.87
2019-06-10T01:11:43.878Z,26.77
2019-06-10T01:12:21.115Z,27.00
2019-06-10T01:12:57.799Z,31.97
2019-06-10T01:13:34.461Z,26.97
2019-06-10T01:14:13.628Z,23.40
2019-06-10T01:14:51.633Z,23.40
2019-06-10T01:15:31.019Z,24.10
2019-06-10T01:16:07.730Z,36.67
2019-06-10T01:16:44.093Z,25.40
2019-06-10T01:17:21.313Z,26.43
2019-06-10T01:17:58.414Z,28.17
2019-06-10T01:18:38.483Z,27.97
2019-06-10T01:19:15.657Z,24.30
2019-06-10T01:19:51.390Z,28.13
2019-06-10T01:20:28.120Z,25.47
2019-06-10T01:21:05.763Z,24.97
2019-06-10T01:21:42.372Z,30.57
2019-06-10T01:22:21.111Z,25.57
2019-06-10T01:22:57.218Z,25.57
2019-06-10T01:23:34.010Z,28.40
2019-06-10T01:24:12.053Z,24.77
2019-06-10T01:24:51.042Z,28.33
2019-06-10T01:25:27.795Z,24.43
2019-06-10T01:26:05.715Z,24.10
2019-06-10T01:26:42.614Z,27.70
2019-06-10T01:27:21.063Z,21.97
2019-06-10T01:27:57.494Z,24.40
2019-06-10T01:28:34.027Z,20.47
2019-06-10T01:29:12.739Z,23.60
2019-06-10T01:29:50.939Z,30.97
2019-06-10T01:30:27.428Z,20.53
2019-06-10T01:31:03.962Z,21.97
2019-06-10T01:31:41.947Z,19.53
2019-06-10T01:32:18.009Z,20.47
2019-06-10T01:32:54.437Z,19.03
2019-06-10T01:33:31.881Z,19.13
2019-06-10T01:34:10.028Z,19.23
2019-06-10T01:34:46.771Z,27.37
2019-06-10T01:35:22.797Z,20.17
2019-06-10T01:36:00.769Z,26.40
2019-06-10T01:36:37.268Z,24.70
2019-06-10T01:37:14.780Z,24.00
2019-06-10T01:37:52.229Z,22.17
2019-06-10T01:38:28.650Z,24.60
2019-06-10T01:39:07.117Z,20.40
2019-06-10T01:39:43.646Z,20.23
2019-06-10T01:40:20.905Z,23.63
2019-06-10T01:40:58.010Z,19.70
2019-06-10T01:41:34.442Z,24.37
2019-06-10T01:42:12.820Z,26.97
2019-06-10T01:42:50.607Z,26.80
2019-06-10T01:43:32.056Z,23.67
2019-06-10T01:44:11.149Z,31.63
2019-06-10T01:44:47.304Z,25.37
2019-06-10T01:45:23.998Z,24.83
2019-06-10T01:46:01.609Z,21.00
2019-06-10T01:46:38.362Z,20.83
2019-06-10T01:47:16.164Z,18.57
2019-06-10T01:47:52.519Z,23.10
2019-06-10T01:48:40.439Z,23.53
2019-06-10T01:49:07.114Z,22.47
2019-06-10T01:49:43.799Z,21.93
2019-06-10T01:50:21.834Z,21.70
2019-06-10T01:50:58.429Z,22.40
2019-06-10T01:51:34.324Z,19.63
2019-06-10T01:52:12.421Z,19.90
2019-06-10T01:52:48.605Z,29.80
2019-06-10T01:53:25.006Z,22.13
2019-06-10T01:54:01.654Z,22.67
2019-06-10T01:54:41.890Z,22.30
2019-06-10T01:55:18.241Z,22.83
2019-06-10T01:55:54.935Z,18.23
2019-06-10T01:56:31.800Z,19.03
2019-06-10T01:57:07.765Z,21.80
2019-06-10T01:57:43.737Z,19.63
2019-06-10T01:58:23.327Z,22.53
2019-06-10T01:58:58.002Z,20.30
2019-06-10T01:59:34.757Z,33.60
2019-06-10T02:00:15.543Z,22.07
2019-06-10T02:01:11.669Z,22.07
2019-06-10T02:01:57.250Z,18.47
2019-06-10T02:02:35.232Z,31.23
2019-06-10T02:03:16.225Z,25.80
2019-06-10T02:03:51.732Z,18.63
2019-06-10T02:04:27.874Z,26.73
2019-06-10T02:05:05.249Z,17.30
2019-06-10T02:05:41.912Z,25.63
2019-06-10T02:06:24.391Z,15.97
2019-06-10T02:07:01.298Z,18.67
2019-06-10T02:07:37.328Z,19.23
2019-06-10T02:08:14.577Z,19.73
2019-06-10T02:08:54.596Z,19.73
2019-06-10T02:09:30.999Z,16.57
2019-06-10T02:10:09.468Z,17.90
2019-06-10T02:10:46.298Z,17.83
2019-06-10T02:11:24.383Z,20.03
2019-06-10T02:12:02.238Z,20.67
2019-06-10T02:12:38.371Z,18.97
2019-06-10T02:13:32.432Z,21.97
2019-06-10T02:14:14.330Z,25.23
2019-06-10T02:14:47.529Z,18.77
2019-06-10T02:15:24.023Z,25.53
2019-06-10T02:16:01.006Z,20.70
2019-06-10T02:16:37.205Z,18.40
2019-06-10T02:17:16.387Z,25.73
2019-06-10T02:17:53.455Z,27.07
2019-06-10T02:18:32.223Z,23.00
2019-06-10T02:19:08.299Z,22.37
2019-06-10T02:19:44.254Z,27.30
2019-06-10T02:20:23.843Z,26.53
2019-06-10T02:21:00.947Z,19.07
2019-06-10T02:21:37.446Z,29.27
2019-06-10T02:22:16.987Z,25.80
2019-06-10T02:22:52.543Z,17.00
2019-06-10T02:23:31.392Z,23.40
2019-06-10T02:24:07.575Z,19.40
2019-06-10T02:24:44.059Z,22.13
2019-06-10T02:25:21.690Z,16.97
2019-06-10T02:26:01.624Z,19.10
2019-06-10T02:26:37.110Z,22.60
2019-06-10T02:27:14.831Z,15.43
2019-06-10T02:27:51.863Z,20.73
2019-06-10T02:28:28.607Z,16.10
2019-06-10T02:29:05.129Z,14.37
2019-06-10T02:29:42.315Z,18.10
2019-06-10T02:30:28.469Z,15.20
2019-06-10T02:30:57.004Z,14.83
2019-06-10T02:31:37.363Z,16.80
2019-06-10T02:32:15.847Z,21.63
2019-06-10T02:32:52.368Z,14.53
2019-06-10T02:33:36.205Z,12.50
2019-06-10T02:34:12.430Z,18.40
2019-06-10T02:35:02.167Z,11.37
2019-06-10T02:35:40.069Z,12.80
2019-06-10T02:36:05.322Z,16.33
2019-06-10T02:36:44.550Z,10.63
2019-06-10T02:37:23.995Z,18.20
2019-06-10T02:37:58.262Z,9.90
2019-06-10T02:38:39.418Z,9.87
2019-06-10T02:39:19.662Z,16.10
2019-06-10T02:39:54.235Z,10.37
2019-06-10T02:40:33.110Z,9.47
2019-06-10T02:41:08.106Z,9.63
2019-06-10T02:41:44.796Z,9.67
2019-06-10T02:42:34.811Z,9.00
2019-06-10T02:43:09.434Z,10.47
2019-06-10T02:43:45.314Z,11.17
2019-06-10T02:44:31.929Z,15.40
2019-06-10T02:45:03.251Z,10.50
2019-06-10T02:45:38.477Z,9.07
2019-06-10T02:46:19.548Z,9.20
2019-06-10T02:46:54.580Z,9.20
2019-06-10T02:47:33.485Z,8.90
2019-06-10T02:48:08.922Z,10.70
2019-06-10T02:48:45.649Z,12.17
2019-06-10T02:49:42.687Z,14.37
2019-06-10T02:50:06.992Z,10.67
2019-06-10T02:51:04.111Z,11.30
2019-06-10T02:51:43.621Z,11.40
2019-06-10T02:52:22.904Z,15.70
2019-06-10T02:52:57.329Z,10.47
2019-06-10T02:53:35.894Z,10.70
2019-06-10T02:54:15.539Z,10.60
2019-06-10T02:54:53.646Z,13.03
2019-06-10T02:55:30.931Z,11.10
2019-06-10T02:56:07.489Z,13.83
2019-06-10T02:56:44.371Z,13.70
2019-06-10T02:57:29.561Z,10.57
2019-06-10T02:57:59.927Z,11.43
2019-06-10T02:58:38.748Z,11.23
2019-06-10T02:59:16.221Z,10.10
2019-06-10T02:59:54.543Z,11.93
2019-06-10T03:00:39.807Z,10.77
2019-06-10T03:01:09.065Z,11.60
2019-06-10T03:01:45.814Z,12.73
2019-06-10T03:02:28.867Z,11.03
2019-06-10T03:03:03.698Z,14.60
2019-06-10T03:03:44.278Z,11.30
2019-06-10T03:04:18.249Z,10.57
2019-06-10T03:04:55.742Z,11.20
2019-06-10T03:05:40.519Z,10.27
2019-06-10T03:06:13.663Z,10.63
2019-06-10T03:06:48.515Z,11.07
2019-06-10T03:07:28.756Z,10.00
2019-06-10T03:08:04.052Z,11.17
2019-06-10T03:08:43.385Z,11.17
2019-06-10T03:09:20.506Z,15.03
2019-06-10T03:09:56.935Z,14.70
2019-06-10T03:10:37.001Z,10.60
2019-06-10T03:11:14.105Z,10.53
2019-06-10T03:11:49.457Z,11.43
2019-06-10T03:12:26.137Z,11.97
2019-06-10T03:13:02.700Z,11.93
2019-06-10T03:13:39.265Z,11.53
2019-06-10T03:14:15.717Z,11.00
2019-06-10T03:14:52.624Z,11.03
2019-06-10T03:15:29.410Z,14.37
2019-06-10T03:16:42.179Z,11.43
2019-06-10T03:17:19.994Z,9.23
2019-06-10T03:17:56.675Z,10.37
2019-06-10T03:18:33.047Z,10.10
2019-06-10T03:19:09.594Z,13.70
2019-06-10T03:19:50.376Z,14.33
2019-06-10T03:20:25.877Z,11.00
2019-06-10T03:21:02.611Z,12.30
2019-06-10T03:21:39.194Z,12.20
2019-06-10T03:22:16.015Z,12.30
2019-06-10T03:22:52.657Z,10.40
2019-06-10T03:23:29.218Z,12.43
2019-06-10T03:24:05.950Z,12.23
2019-06-10T03:24:42.244Z,18.30
2019-06-10T03:25:18.745Z,12.80
2019-06-10T03:26:04.593Z,13.60
2019-06-10T03:26:42.806Z,10.70
2019-06-10T03:27:20.413Z,10.20
2019-06-10T03:27:57.255Z,10.87
2019-06-10T03:28:34.048Z,8.93
2019-06-10T03:29:12.852Z,9.07
2019-06-10T03:29:49.074Z,12.23
2019-06-10T03:30:39.390Z,10.37
2019-06-10T03:31:05.802Z,9.07
2019-06-10T03:31:47.299Z,8.73
2019-06-10T03:32:23.190Z,6.70
2019-06-10T03:32:58.217Z,15.63
2019-06-10T03:33:42.094Z,8.97
2019-06-10T03:34:18.147Z,7.40
2019-06-10T03:34:55.133Z,8.50
2019-06-10T03:35:33.038Z,8.80
2019-06-10T03:36:12.019Z,8.13
2019-06-10T03:36:47.906Z,12.00
2019-06-10T03:37:25.999Z,7.83
2019-06-10T03:38:03.021Z,8.77
2019-06-10T03:38:39.127Z,11.77
2019-06-10T03:39:16.162Z,8.57
2019-06-10T03:39:53.150Z,7.70
2019-06-10T03:40:30.185Z,10.70
2019-06-10T03:41:07.744Z,9.73
2019-06-10T03:41:43.796Z,8.77
2019-06-10T03:42:23.717Z,16.33
2019-06-10T03:43:02.561Z,9.47
2019-06-10T03:43:39.469Z,10.23
2019-06-10T03:44:15.363Z,20.97
2019-06-10T03:44:52.559Z,9.97
2019-06-10T03:45:28.727Z,8.87
2019-06-10T03:46:04.643Z,12.53
2019-06-10T03:46:43.368Z,10.77
2019-06-10T03:47:21.850Z,10.33
2019-06-10T03:47:58.628Z,12.40
2019-06-10T03:48:34.716Z,20.80
2019-06-10T03:49:12.618Z,9.53
2019-06-10T03:49:52.547Z,9.20
2019-06-10T03:50:27.482Z,9.30
2019-06-10T03:51:05.636Z,10.30
2019-06-10T03:51:42.861Z,11.03
2019-06-10T03:52:19.369Z,9.93
2019-06-10T03:53:00.941Z,11.30
2019-06-10T03:53:36.044Z,10.13
2019-06-10T03:54:14.094Z,9.83
2019-06-10T03:54:52.131Z,10.17
2019-06-10T03:55:29.162Z,9.67
2019-06-10T03:56:05.352Z,12.87
2019-06-10T03:56:42.975Z,9.53
2019-06-10T03:57:19.261Z,12.07
2019-06-10T03:57:56.736Z,13.03
2019-06-10T03:58:32.963Z,9.80
2019-06-10T03:59:08.940Z,8.80
2019-06-10T03:59:45.015Z,8.93
2019-06-10T04:00:27.203Z,9.40
2019-06-10T04:01:03.730Z,9.10
2019-06-10T04:01:42.295Z,9.70
2019-06-10T04:02:17.405Z,12.23
2019-06-10T04:02:53.314Z,8.10
2019-06-10T04:03:29.398Z,8.63
2019-06-10T04:04:08.920Z,8.43
2019-06-10T04:04:44.839Z,9.33
2019-06-10T04:05:23.910Z,8.67
2019-06-10T04:05:58.370Z,8.80
2019-06-10T04:06:34.285Z,12.40
2019-06-10T04:07:14.234Z,8.03
2019-06-10T04:07:52.675Z,23.13
2019-06-10T04:08:28.688Z,7.97
2019-06-10T04:09:05.222Z,9.10
2019-06-10T04:09:42.507Z,8.83
2019-06-10T04:10:23.980Z,11.10
2019-06-10T04:11:02.635Z,10.30
2019-06-10T04:11:38.281Z,10.60
2019-06-10T04:12:17.479Z,8.90
2019-06-10T04:12:53.406Z,13.00
2019-06-10T04:13:29.313Z,9.50
2019-06-10T04:14:05.182Z,9.60
2019-06-10T04:14:42.328Z,9.37
2019-06-10T04:15:18.163Z,8.47
2019-06-10T04:15:56.954Z,9.30
2019-06-10T04:16:32.940Z,10.57
2019-06-10T04:17:08.857Z,10.13
2019-06-10T04:17:44.801Z,10.83
2019-06-10T04:18:24.175Z,11.93
2019-06-10T04:18:58.329Z,9.07
2019-06-10T04:19:34.217Z,10.73
2019-06-10T04:20:13.142Z,9.80
2019-06-10T04:20:48.105Z,10.30
2019-06-10T04:21:28.354Z,10.73
2019-06-10T04:22:04.333Z,8.27
2019-06-10T04:22:40.193Z,11.77
2019-06-10T04:23:16.084Z,10.03
2019-06-10T04:23:52.877Z,11.67
2019-06-10T04:24:28.990Z,9.43
2019-06-10T04:25:04.900Z,12.00
2019-06-10T04:25:44.321Z,8.60
2019-06-10T04:26:24.107Z,9.23
2019-06-10T04:27:02.802Z,9.07
2019-06-10T04:27:42.263Z,8.83
2019-06-10T04:28:17.852Z,12.10
2019-06-10T04:28:55.439Z,7.97
2019-06-10T04:29:32.938Z,9.20
2019-06-10T04:30:12.283Z,12.23
2019-06-10T04:30:47.729Z,8.73
2019-06-10T04:31:25.179Z,10.17
2019-06-10T04:32:03.045Z,10.07
2019-06-10T04:32:39.267Z,12.30
2019-06-10T04:33:15.159Z,10.50
2019-06-10T04:33:53.108Z,10.00
2019-06-10T04:34:33.369Z,20.10
2019-06-10T04:35:09.559Z,9.40
2019-06-10T04:35:46.750Z,11.90
2019-06-10T04:36:24.507Z,12.67
2019-06-10T04:37:03.247Z,10.20
2019-06-10T04:37:39.328Z,8.13
2019-06-10T04:38:16.691Z,9.03
2019-06-10T04:38:52.699Z,11.53
2019-06-10T04:39:29.262Z,11.37
2019-06-10T04:40:15.762Z,8.63
2019-06-10T04:40:52.617Z,9.53
2019-06-10T04:41:29.199Z,9.67
2019-06-10T04:42:05.162Z,18.20
2019-06-10T04:42:43.625Z,9.70
2019-06-10T04:43:20.423Z,8.40
2019-06-10T04:43:58.220Z,9.13
2019-06-10T04:44:34.111Z,9.73
2019-06-10T04:45:12.210Z,10.27
2019-06-10T04:45:49.774Z,11.67
2019-06-10T04:46:29.551Z,9.53
2019-06-10T04:47:05.748Z,10.30
2019-06-10T04:47:43.223Z,9.83
2019-06-10T04:48:20.569Z,10.60
2019-06-10T04:48:57.140Z,10.20
2019-06-10T04:49:33.187Z,10.13
2019-06-10T04:50:24.028Z,13.50
2019-06-10T04:50:47.210Z,10.20
2019-06-10T04:51:24.880Z,11.77
2019-06-10T04:52:03.102Z,11.13
2019-06-10T04:52:42.906Z,14.50
2019-06-10T04:53:18.686Z,10.23
2019-06-10T04:53:54.692Z,10.50
2019-06-10T04:54:33.074Z,10.47
2019-06-10T04:55:08.406Z,10.90
2019-06-10T04:55:45.275Z,9.07
2019-06-10T04:56:24.579Z,10.20
2019-06-10T04:57:02.234Z,13.03
2019-06-10T04:57:38.319Z,10.83
2019-06-10T04:58:14.199Z,13.07
2019-06-10T04:58:52.341Z,10.30
2019-06-10T04:59:33.622Z,9.97
2019-06-10T05:00:13.867Z,11.77
2019-06-10T05:00:47.968Z,11.30
2019-06-10T05:01:27.007Z,10.83
2019-06-10T05:02:05.727Z,10.65
2019-06-10T05:02:43.124Z,10.10
2019-06-10T05:03:19.331Z,10.50
2019-06-10T05:03:55.325Z,10.03
2019-06-10T05:04:33.005Z,10.97
2019-06-10T05:05:09.165Z,9.60
2019-06-10T05:05:48.090Z,14.80
2019-06-10T05:06:25.767Z,10.10
2019-06-10T05:07:02.986Z,11.93
2019-06-10T05:07:39.748Z,9.20
2019-06-10T05:08:15.739Z,10.30
2019-06-10T05:08:53.786Z,10.50
2019-06-10T05:09:36.246Z,10.20
2019-06-10T05:10:12.589Z,8.87
2019-06-10T05:10:49.321Z,14.60
2019-06-10T05:11:26.945Z,9.00
2019-06-10T05:12:03.072Z,8.13
2019-06-10T05:12:43.094Z,9.47
2019-06-10T05:13:19.303Z,9.63
2019-06-10T05:13:55.362Z,10.83
2019-06-10T05:14:33.397Z,10.60
2019-06-10T05:15:09.754Z,12.67
2019-06-10T05:15:45.771Z,9.27
2019-06-10T05:16:27.020Z,10.53
2019-06-10T05:17:02.233Z,10.60
2019-06-10T05:17:39.014Z,10.63
2019-06-10T05:18:15.734Z,10.80
2019-06-10T05:18:54.601Z,8.93
2019-06-10T05:19:33.521Z,8.87
2019-06-10T05:20:09.239Z,9.37
2019-06-10T05:20:54.850Z,9.50
2019-06-10T05:21:26.155Z,10.40
2019-06-10T05:22:03.137Z,10.07
2019-06-10T05:22:39.015Z,10.00
2019-06-10T05:23:14.983Z,9.23
2019-06-10T05:23:52.232Z,9.43
2019-06-10T05:24:30.131Z,8.60
2019-06-10T05:25:09.115Z,15.33
2019-06-10T05:25:47.114Z,14.03
2019-06-10T05:26:26.932Z,9.40
2019-06-10T05:27:03.069Z,9.23
2019-06-10T05:27:38.970Z,9.17
2019-06-10T05:28:15.410Z,8.30
2019-06-10T05:28:52.416Z,10.40
2019-06-10T05:29:31.219Z,16.57
2019-06-10T05:30:09.026Z,10.47
2019-06-10T05:30:44.989Z,14.63
2019-06-10T05:31:25.209Z,10.10
2019-06-10T05:32:02.398Z,10.23
2019-06-10T05:32:37.721Z,9.67
2019-06-10T05:33:13.609Z,9.87
2019-06-10T05:33:49.510Z,10.20
2019-06-10T05:34:27.219Z,10.37
2019-06-10T05:35:04.809Z,16.20
2019-06-10T05:35:42.756Z,10.60
2019-06-10T05:36:20.567Z,9.53
2019-06-10T05:36:59.767Z,9.20
2019-06-10T05:37:36.586Z,13.37
2019-06-10T05:38:16.049Z,9.83
2019-06-10T05:38:52.620Z,8.77
2019-06-10T05:39:30.394Z,9.93
2019-06-10T05:40:07.653Z,10.00
2019-06-10T05:40:43.523Z,9.80
2019-06-10T05:41:24.099Z,11.17
2019-06-10T05:41:59.733Z,9.80
2019-06-10T05:42:36.287Z,11.33
2019-06-10T05:43:13.077Z,10.83
2019-06-10T05:43:49.188Z,9.10
2019-06-10T05:44:25.760Z,9.60
2019-06-10T05:45:03.813Z,16.47
2019-06-10T05:45:42.308Z,9.43
2019-06-10T05:46:17.800Z,11.40
2019-06-10T05:46:53.649Z,9.67
2019-06-10T05:47:31.532Z,10.67
2019-06-10T05:48:08.008Z,8.83
2019-06-10T05:48:46.340Z,9.10
2019-06-10T05:49:24.157Z,9.97
2019-06-10T05:50:03.888Z,10.67
2019-06-10T05:50:39.727Z,11.37
2019-06-10T05:51:15.696Z,9.93
2019-06-10T05:51:52.831Z,9.97
2019-06-10T05:52:29.080Z,10.10
2019-06-10T05:53:07.025Z,11.27
2019-06-10T05:53:45.719Z,8.10
2019-06-10T05:54:23.350Z,10.00
2019-06-10T05:54:59.051Z,9.73
2019-06-10T05:55:35.382Z,10.10
2019-06-10T05:56:12.947Z,10.90
2019-06-10T05:56:52.186Z,9.40
2019-06-10T05:57:29.465Z,12.37
2019-06-10T05:58:06.007Z,12.33
2019-06-10T05:58:43.569Z,12.33
2019-06-10T05:59:23.017Z,11.23
2019-06-10T05:59:58.773Z,10.80
2019-06-10T06:00:35.514Z,10.27
2019-06-10T06:01:13.201Z,10.30
2019-06-10T06:01:49.519Z,10.13
2019-06-10T06:02:25.789Z,10.80
2019-06-10T06:03:02.768Z,9.17
2019-06-10T06:03:40.187Z,11.60
2019-06-10T06:04:16.149Z,10.63
2019-06-10T06:04:53.060Z,13.50
2019-06-10T06:05:30.212Z,11.60
2019-06-10T06:06:07.384Z,10.00
2019-06-10T06:06:45.061Z,10.53
2019-06-10T06:07:22.271Z,11.87
2019-06-10T06:08:04.362Z,10.70
2019-06-10T06:08:37.477Z,10.67
2019-06-10T06:09:14.324Z,11.87
2019-06-10T06:09:50.306Z,10.77
2019-06-10T06:10:27.238Z,20.53
2019-06-10T06:11:03.482Z,10.97
2019-06-10T06:11:39.468Z,10.67
2019-06-10T06:12:15.403Z,10.97
2019-06-10T06:12:52.658Z,9.60
2019-06-10T06:13:29.501Z,13.43
2019-06-10T06:14:05.605Z,14.13
2019-06-10T06:14:42.605Z,12.07
2019-06-10T06:15:22.086Z,11.53
2019-06-10T06:15:58.095Z,11.20
2019-06-10T06:16:36.127Z,11.20
2019-06-10T06:17:12.723Z,12.37
2019-06-10T06:18:03.984Z,15.70
2019-06-10T06:18:30.070Z,12.37
2019-06-10T06:19:07.561Z,11.03
2019-06-10T06:19:43.480Z,16.60
2019-06-10T06:20:19.976Z,12.83
2019-06-10T06:20:55.966Z,12.57
2019-06-10T06:21:39.709Z,12.30
2019-06-10T06:22:12.595Z,14.17
2019-06-10T06:22:48.786Z,13.10
2019-06-10T06:23:26.904Z,13.40
2019-06-10T06:24:04.259Z,14.90
2019-06-10T06:24:42.621Z,12.73
2019-06-10T06:25:17.870Z,13.93
2019-06-10T06:25:54.686Z,15.87
2019-06-10T06:26:36.532Z,15.63
2019-06-10T06:27:09.427Z,14.17
2019-06-10T06:27:45.299Z,15.80
2019-06-10T06:28:22.944Z,14.33
2019-06-10T06:28:58.997Z,13.80
2019-06-10T06:29:36.726Z,13.93
2019-06-10T06:30:18.461Z,18.23
2019-06-10T06:30:52.808Z,13.67
2019-06-10T06:31:30.194Z,13.10
2019-06-10T06:32:06.875Z,13.77
2019-06-10T06:32:44.022Z,11.60
2019-06-10T06:33:22.016Z,13.27
2019-06-10T06:33:57.720Z,12.10
2019-06-10T06:34:35.909Z,15.20
2019-06-10T06:35:12.616Z,12.70
2019-06-10T06:35:48.735Z,12.53
2019-06-10T06:36:24.593Z,12.97
2019-06-10T06:37:02.206Z,11.33
2019-06-10T06:37:39.678Z,13.30
2019-06-10T06:38:16.441Z,14.20
2019-06-10T06:38:53.178Z,17.03
2019-06-10T06:39:29.344Z,12.77
2019-06-10T06:40:05.751Z,17.33
2019-06-10T06:40:43.463Z,14.90
2019-06-10T06:41:22.420Z,20.00
2019-06-10T06:41:59.051Z,15.43
2019-06-10T06:42:37.081Z,14.40
2019-06-10T06:43:14.254Z,14.30
2019-06-10T06:43:53.114Z,13.37
2019-06-10T06:44:29.640Z,20.40
2019-06-10T06:45:06.628Z,13.13
2019-06-10T06:45:42.851Z,15.87
2019-06-10T06:46:18.816Z,13.90
2019-06-10T06:46:54.909Z,12.80
2019-06-10T06:47:34.014Z,12.57
2019-06-10T06:48:09.180Z,13.40
2019-06-10T06:48:45.231Z,13.73
2019-06-10T06:49:23.112Z,21.17
2019-06-10T06:50:02.758Z,13.37
2019-06-10T06:50:59.094Z,19.33
2019-06-10T06:51:33.607Z,11.53
2019-06-10T06:51:59.335Z,13.33
2019-06-10T06:53:09.250Z,13.30
2019-06-10T06:53:28.842Z,12.70
2019-06-10T06:53:57.473Z,15.50
2019-06-10T06:54:38.122Z,12.70
2019-06-10T06:55:17.021Z,11.60
2019-06-10T06:55:55.865Z,15.97
2019-06-10T06:56:36.139Z,12.73
2019-06-10T06:57:13.118Z,12.40
2019-06-10T06:57:52.952Z,12.67
2019-06-10T06:58:29.136Z,12.33
2019-06-10T06:59:05.854Z,11.87
2019-06-10T06:59:43.254Z,23.30
2019-06-10T07:00:38.171Z,15.17
2019-06-10T07:01:07.388Z,11.10
2019-06-10T07:01:38.062Z,11.80
2019-06-10T07:02:22.746Z,12.80
2019-06-10T07:03:05.988Z,12.13
2019-06-10T07:03:45.093Z,14.60
2019-06-10T07:04:23.415Z,12.70
2019-06-10T07:05:03.039Z,12.77
2019-06-10T07:05:43.377Z,10.80
2019-06-10T07:06:19.581Z,11.00
2019-06-10T07:06:56.299Z,10.30
2019-06-10T07:07:38.573Z,11.50
2019-06-10T07:08:17.827Z,9.20
2019-06-10T07:09:04.168Z,10.90
2019-06-10T07:09:36.176Z,11.70
2019-06-10T07:10:14.646Z,12.37
2019-06-10T07:10:52.258Z,11.30
2019-06-10T07:11:31.162Z,11.93
2019-06-10T07:12:08.502Z,10.63
2019-06-10T07:12:47.494Z,13.07
2019-06-10T07:13:24.719Z,12.10
2019-06-10T07:14:03.797Z,11.03
2019-06-10T07:14:44.807Z,20.53
2019-06-10T07:15:22.851Z,12.10
2019-06-10T07:16:02.726Z,14.10
2019-06-10T07:16:45.963Z,11.23
2019-06-10T07:17:22.732Z,12.13
2019-06-10T07:17:58.777Z,10.30
2019-06-10T07:18:41.170Z,11.10
2019-06-10T07:19:14.270Z,11.20
2019-06-10T07:19:57.507Z,11.77
2019-06-10T07:20:33.353Z,11.13
2019-06-10T07:21:13.259Z,13.43
2019-06-10T07:22:07.616Z,11.20
2019-06-10T07:22:28.223Z,10.50
2019-06-10T07:23:07.035Z,11.93
2019-06-10T07:23:46.852Z,15.43
2019-06-10T07:24:23.202Z,10.50
2019-06-10T07:24:59.221Z,12.03
2019-06-10T07:25:39.083Z,10.43
2019-06-10T07:26:15.095Z,27.33
2019-06-10T07:26:54.931Z,11.13
2019-06-10T07:27:35.342Z,11.40
2019-06-10T07:28:19.069Z,27.23
2019-06-10T07:28:56.554Z,11.43
2019-06-10T07:29:34.105Z,10.53
2019-06-10T07:30:12.567Z,11.33
2019-06-10T07:30:54.991Z,10.23
2019-06-10T07:31:33.588Z,10.57
2019-06-10T07:32:12.413Z,10.30
2019-06-10T07:32:48.748Z,10.23
2019-06-10T07:33:25.387Z,10.43
2019-06-10T07:34:02.577Z,12.03
2019-06-10T07:34:40.458Z,12.27
2019-06-10T07:35:18.331Z,11.37
2019-06-10T07:35:56.593Z,11.80
2019-06-10T07:36:35.633Z,11.33
2019-06-10T07:37:13.013Z,10.00
2019-06-10T07:37:52.498Z,11.30
2019-06-10T07:38:34.028Z,10.33
2019-06-10T07:39:13.173Z,10.35
2019-06-10T07:39:52.428Z,11.07
2019-06-10T07:40:33.085Z,10.70
2019-06-10T07:41:09.131Z,10.63
2019-06-10T07:41:48.064Z,8.90
2019-06-10T07:42:24.146Z,10.20
2019-06-10T07:43:02.348Z,9.67
2019-06-10T07:43:47.513Z,9.33
2019-06-10T07:44:22.647Z,26.43
2019-06-10T07:45:02.403Z,9.57
2019-06-10T07:45:43.687Z,11.47
2019-06-10T07:46:19.247Z,12.87
2019-06-10T07:46:55.771Z,8.63
2019-06-10T07:47:32.652Z,8.20
2019-06-10T07:48:12.056Z,8.10
2019-06-10T07:48:48.629Z,11.00
2019-06-10T07:49:25.270Z,8.33
2019-06-10T07:50:03.025Z,8.00
2019-06-10T07:50:39.349Z,8.47
2019-06-10T07:51:15.242Z,9.83
2019-06-10T07:51:52.388Z,19.33
2019-06-10T07:52:29.577Z,7.77
2019-06-10T07:53:06.615Z,7.77
2019-06-10T07:53:46.582Z,8.37
2019-06-10T07:54:23.039Z,7.57
2019-06-10T07:54:59.365Z,10.77
2019-06-10T07:55:36.632Z,8.50
2019-06-10T07:56:14.887Z,8.67
2019-06-10T07:56:53.706Z,7.70
2019-06-10T07:57:30.039Z,7.00
2019-06-10T07:58:05.940Z,6.97
2019-06-10T07:58:47.636Z,7.97
2019-06-10T07:59:23.453Z,7.47
2019-06-10T07:59:59.329Z,13.57
2019-06-10T08:00:36.910Z,13.00
2019-06-10T08:01:14.452Z,8.77
2019-06-10T08:01:55.121Z,16.40
2019-06-10T08:02:32.287Z,7.90
2019-06-10T08:03:09.690Z,7.67
2019-06-10T08:03:46.654Z,8.00
2019-06-10T08:04:24.394Z,8.20
2019-06-10T08:05:03.513Z,8.10
2019-06-10T08:05:44.340Z,10.40
2019-06-10T08:06:22.609Z,7.40
2019-06-10T08:06:58.566Z,7.53
2019-06-10T08:07:35.220Z,8.47
2019-06-10T08:08:13.022Z,9.10